WSSL/XSP METAR and TAF weather

Enter ICAO airport designator
Station Type Date Time Source
WSSL METAR 2019/12/14 19:28 UTC NOAA

WSSL 141928Z 13003KT 3000 +TSRA FEW012 FEW015CB BKN150 24/23 Q1009


Station Type Date Time Source
WSSL Decoded METAR 2019/12/14 19:28 UTC NOAA

Station name not available
Dec 14, 2019 - 02:28 PM EST / 2019.12.14 1928 UTC
Wind: from the SE (130 degrees) at 3 MPH (3 KT):0
Visibility: 1 mile(s):0
Sky conditions: mostly cloudy
Weather: heavy rain with thunder; Cumulonimbus clouds observed
Temperature: 75 F (24 C)
Dew Point: 73 F (23 C)
Relative Humidity: 94%
Pressure (altimeter): 29.80 in. Hg (1009 hPa)
ob: WSSL 141928Z 13003KT 3000 +TSRA FEW012 FEW015CB BKN150 24/23 Q1009
cycle: 19

Station Type Date Time Source
WSSL TAF 2019/12/14 18:00 UTC NOAA

TAF WSSL 141700Z 1418/1600 03007KT 9999 FEW015 SCT020
TEMPO 1505/1509 3000 TSRA FEW012CB BKN015

Example: see airport list